Platteville, WI

1:49 AM CDT on March 30, 2017 (GMT -0500)
Platteville Municipal

Weather History for KPVB - November, 2011

Change the Weather History Date:

Thursday, November 3, 2011

  Actual Average (KDBQ) Record (KDBQ)
Temperature  
Mean Temperature 40 °F -  
Max Temperature 48 °F 48 °F 73 °F (1964)
Min Temperature 32 °F 32 °F 8 °F (1951)
Degree Days  
Heating Degree Days 25    
Moisture  
Dew Point 33 °F    
Average Humidity 78    
Maximum Humidity 93    
Minimum Humidity 50    
Precipitation  
Precipitation 0.00 in - - ()
Sea Level Pressure  
Sea Level Pressure 30.15 in    
Wind  
Wind Speed 11 mph (NNE)    
Max Wind Speed 18 mph    
Max Gust Speed 28 mph    
Visibility 10 miles    
Events      
Averages and records for this station are not official NWS values.
T = Trace of Precipitation, MM = Missing Value Source: NWS Daily Summary

Daily Weather History Graph

Daily Weather History Graph

Search for Another Location

Airport or City:

Trip Planner

Search our weather history database for the weather conditions in past years. The results will help you decide how hot, cold, wet, or windy it might be!

Date:

Astronomy

Nov. 03, 2011 Rise Set
Actual Time 7:37 AM CDT 5:52 PM CDT
Civil Twilight 7:08 AM CDT 6:21 PM CDT
Nautical Twilight 6:34 AM CDT 6:55 PM CDT
Astronomical Twilight 6:02 AM CDT 7:27 PM CDT
Moon 2:24 PM CDT (11/3) 12:41 AM CDT (11/3)
Length of Visible Light 11h 13m
Length of Day
10h 14m
First Quarter, 60% of the Moon is Illuminated
Nov 3
First Quarter
Nov 10
Full
Nov 18
Last Quarter
Nov 25
New
Dec 2
First Quarter

Hourly Weather History & Observations

Time (CDT) Temp. Windchill Dew Point Humidity Pressure Visibility Wind Dir Wind Speed Gust Speed Precip Events Conditions
12:15 AM 37.4 °F 30.8 °F 35.6 °F 93% 30.11 in 10.0 mi NNE 9.2 mph - N/A   Overcast
12:35 AM 37.4 °F 32.1 °F 35.6 °F 93% 30.13 in 10.0 mi NNE 6.9 mph - N/A   Overcast
12:55 AM 37.4 °F 32.1 °F 35.6 °F 93% 30.12 in 10.0 mi NNE 6.9 mph - N/A   Overcast
1:15 AM 37.4 °F 31.4 °F 35.6 °F 93% 30.12 in 10.0 mi NNE 8.1 mph - N/A   Overcast
1:55 AM 37.4 °F 30.3 °F 35.6 °F 93% 30.10 in 10.0 mi North 10.4 mph - N/A   Overcast
2:15 AM 37.4 °F 31.4 °F 35.6 °F 93% 30.10 in 10.0 mi NNE 8.1 mph - N/A   Overcast
2:35 AM 37.4 °F 29.8 °F 35.6 °F 93% 30.08 in 10.0 mi NNE 11.5 mph - N/A   Overcast
2:55 AM 37.4 °F 30.3 °F 35.6 °F 93% 30.09 in 10.0 mi NNE 10.4 mph - N/A   Overcast
3:15 AM 37.4 °F 29.8 °F 35.6 °F 93% 30.08 in 10.0 mi NNE 11.5 mph - N/A   Overcast
3:35 AM 37.4 °F 29.8 °F 35.6 °F 93% 30.09 in 10.0 mi North 11.5 mph 17.3 mph N/A   Overcast
4:35 AM 37.4 °F 29.8 °F 35.6 °F 93% 30.04 in 10.0 mi NNE 11.5 mph - N/A   Overcast
4:55 AM 37.4 °F 28.2 °F 35.6 °F 93% 30.04 in 10.0 mi NNE 16.1 mph - N/A   Overcast
5:15 AM 37.4 °F 28.9 °F 35.6 °F 93% 30.05 in 10.0 mi NNE 13.8 mph 20.7 mph N/A   Overcast
5:35 AM 37.4 °F 28.9 °F 35.6 °F 93% 30.07 in 10.0 mi NNE 13.8 mph 19.6 mph N/A   Mostly Cloudy
5:55 AM 37.4 °F 28.9 °F 35.6 °F 93% 30.08 in 10.0 mi NNE 13.8 mph 18.4 mph N/A   Mostly Cloudy
6:15 AM 37.4 °F 28.5 °F 35.6 °F 93% 30.08 in 10.0 mi NNE 15.0 mph 24.2 mph N/A   Overcast
6:35 AM 39.2 °F 30.5 °F 35.6 °F 87% 30.07 in 10.0 mi NNE 16.1 mph 21.9 mph N/A   Scattered Clouds
6:55 AM 39.2 °F 30.5 °F 33.8 °F 81% 30.08 in 10.0 mi NNE 16.1 mph 25.3 mph N/A   Clear
7:15 AM 37.4 °F 28.2 °F 33.8 °F 87% 30.09 in 10.0 mi NNE 16.1 mph 20.7 mph N/A   Clear
7:35 AM 37.4 °F 28.5 °F 33.8 °F 87% 30.09 in 10.0 mi North 15.0 mph 20.7 mph N/A   Clear
7:55 AM 37.4 °F 28.2 °F 33.8 °F 87% 30.10 in 10.0 mi North 16.1 mph 24.2 mph N/A   Clear
8:15 AM 37.4 °F 27.5 °F 33.8 °F 87% 30.11 in 10.0 mi North 18.4 mph 24.2 mph N/A   Clear
8:35 AM 39.2 °F 31.2 °F 33.8 °F 81% 30.13 in 10.0 mi North 13.8 mph 20.7 mph N/A   Clear
8:55 AM 37.4 °F 28.5 °F 33.8 °F 87% 30.13 in 10.0 mi North 15.0 mph 21.9 mph N/A   Clear
9:35 AM 39.2 °F 30.2 °F 33.8 °F 81% 30.12 in 10.0 mi North 17.3 mph 21.9 mph N/A   Clear
9:55 AM 39.2 °F 29.8 °F 33.8 °F 81% 30.11 in 10.0 mi North 18.4 mph 27.6 mph N/A   Clear
10:15 AM 41.0 °F 32.5 °F 33.8 °F 76% 30.14 in 10.0 mi North 17.3 mph 24.2 mph N/A   Clear
10:35 AM 41.0 °F 32.2 °F 35.6 °F 81% 30.16 in 10.0 mi North 18.4 mph 23.0 mph N/A   Clear
10:55 AM 41.0 °F 33.1 °F 35.6 °F 81% 30.18 in 10.0 mi North 15.0 mph 24.2 mph N/A   Clear
11:15 AM 41.0 °F 33.5 °F 33.8 °F 76% 30.18 in 10.0 mi North 13.8 mph - N/A   Clear
11:35 AM 42.8 °F 34.5 °F 35.6 °F 76% 30.17 in 10.0 mi North 18.4 mph 24.2 mph N/A   Clear
11:55 AM 42.8 °F 34.5 °F 35.6 °F 76% 30.16 in 10.0 mi North 18.4 mph 26.5 mph N/A   Clear
12:35 PM 44.6 °F 37.4 °F 35.6 °F 71% 30.16 in 10.0 mi NNE 16.1 mph 25.3 mph N/A   Clear
1:15 PM 46.4 °F 39.8 °F 33.8 °F 62% 30.14 in 10.0 mi NNE 16.1 mph 20.7 mph N/A   Clear
2:15 PM 48.2 °F - 32.0 °F 54% 30.14 in 10.0 mi North 15.0 mph 19.6 mph N/A   Clear
2:35 PM 48.2 °F - 32.0 °F 54% 30.14 in 10.0 mi NNE 12.7 mph - N/A   Clear
2:55 PM 48.2 °F - 32.0 °F 54% 30.15 in 10.0 mi North 15.0 mph - N/A   Clear
3:15 PM 48.2 °F - 32.0 °F 54% 30.15 in 10.0 mi North 12.7 mph - N/A   Clear
3:35 PM 48.2 °F - 30.2 °F 50% 30.16 in 10.0 mi North 16.1 mph 24.2 mph N/A   Clear
3:55 PM 48.2 °F - 30.2 °F 50% 30.16 in 10.0 mi North 17.3 mph 21.9 mph N/A   Clear
4:35 PM 48.2 °F - 30.2 °F 50% 30.16 in 10.0 mi North 13.8 mph 20.7 mph N/A   Clear
4:55 PM 46.4 °F 40.4 °F 32.0 °F 57% 30.17 in 10.0 mi North 13.8 mph - N/A   Clear
5:15 PM 46.4 °F 41.1 °F 32.0 °F 57% 30.17 in 10.0 mi North 11.5 mph - N/A   Clear
5:35 PM 44.6 °F 40.2 °F 32.0 °F 61% 30.18 in 10.0 mi North 8.1 mph - N/A   Clear
5:55 PM 42.8 °F 38.6 °F 32.0 °F 66% 30.19 in 10.0 mi North 6.9 mph - N/A   Clear
6:15 PM 41.0 °F 36.4 °F 32.0 °F 70% 30.19 in 10.0 mi North 6.9 mph - N/A   Clear
6:35 PM 41.0 °F 35.8 °F 32.0 °F 70% 30.20 in 10.0 mi North 8.1 mph - N/A   Clear
6:55 PM 41.0 °F 35.8 °F 32.0 °F 70% 30.20 in 10.0 mi North 8.1 mph - N/A   Clear
7:15 PM 39.2 °F 33.6 °F 32.0 °F 75% 30.20 in 10.0 mi North 8.1 mph - N/A   Clear
7:35 PM 37.4 °F 32.1 °F 30.2 °F 75% 30.21 in 10.0 mi North 6.9 mph - N/A   Clear
7:55 PM 37.4 °F 30.3 °F 30.2 °F 75% 30.21 in 10.0 mi North 10.4 mph - N/A   Clear
8:15 PM 37.4 °F 31.4 °F 30.2 °F 75% 30.21 in 10.0 mi North 8.1 mph - N/A   Clear
8:35 PM 35.6 °F 31.7 °F 28.4 °F 75% 30.21 in 10.0 mi North 4.6 mph - N/A   Clear
8:55 PM 37.4 °F 34.9 °F 28.4 °F 70% 30.22 in 10.0 mi North 3.5 mph - N/A   Clear
9:15 PM 35.6 °F 29.9 °F 28.4 °F 75% 30.23 in 10.0 mi North 6.9 mph - N/A   Clear
9:35 PM 35.6 °F 29.2 °F 28.4 °F 75% 30.24 in 10.0 mi North 8.1 mph - N/A   Clear
9:55 PM 33.8 °F 28.6 °F 28.4 °F 81% 30.25 in 10.0 mi North 5.8 mph - N/A   Clear
10:15 PM 32.0 °F 26.4 °F 28.4 °F 87% 30.25 in 10.0 mi NNE 5.8 mph - N/A   Clear
10:35 PM 32.0 °F 26.4 °F 28.4 °F 87% 30.24 in 10.0 mi North 5.8 mph - N/A   Clear
10:55 PM 33.8 °F 27.0 °F 28.4 °F 81% 30.25 in 10.0 mi North 8.1 mph - N/A   Clear
11:15 PM 33.8 °F 27.7 °F 28.4 °F 81% 30.25 in 10.0 mi North 6.9 mph - N/A   Clear
11:55 PM 32.0 °F 26.4 °F 28.4 °F 87% 30.25 in 10.0 mi NNE 5.8 mph - N/A   Clear